Time;durP1;ratioP1;P1;durP2;ratioP2;P2;SDS_P1;SDS_P2;PMS_P1;PMS_P2;Temp;Humidity;BMP_temperature;BMP_pressure;BME280_temperature;BME280_humidity;BME280_pressure;Samples;Min_cycle;Max_cycle;Signal;HPM_P1;HPM_P2
2024/02/27 00:00:46;;;;;;;5.20;2.55;;;;;;;-146.27;85.91;45472.81;5068320;28;20181;-72
2024/02/27 00:03:11;;;;;;;5.13;2.38;;;;;;;-146.27;85.68;45508.63;5067535;28;20115;-72
2024/02/27 00:05:37;;;;;;;3.35;2.20;;;;;;;-146.27;86.21;45492.72;5067067;28;20532;-73
2024/02/27 00:08:02;;;;;;;4.35;3.00;;;;;;;-146.27;85.83;45490.72;5066280;28;20469;-73
2024/02/27 00:10:28;;;;;;;4.63;2.72;;;;;;;-146.27;85.75;45512.63;5059158;28;20085;-72
2024/02/27 00:12:53;;;;;;;4.18;2.50;;;;;;;-146.27;86.13;45524.56;5057067;28;20024;-72
2024/02/27 00:15:19;;;;;;;4.60;2.63;;;;;;;-146.27;86.09;45514.63;5063214;28;20036;-72
2024/02/27 00:17:44;;;;;;;6.03;2.78;;;;;;;-146.27;85.86;45502.66;5064211;28;20033;-73
2024/02/27 00:20:10;;;;;;;9.07;3.08;;;;;;;-146.27;86.11;45538.50;5065527;28;20488;-73
2024/02/27 00:22:35;;;;;;;8.20;3.25;;;;;;;-146.27;86.44;45508.63;5066689;28;20032;-72
2024/02/27 00:25:00;;;;;;;3.95;2.92;;;;;;;-146.27;86.32;45520.59;5067900;28;21740;-71
2024/02/27 00:27:26;;;;;;;6.38;2.75;;;;;;;-146.27;86.49;45536.50;5066182;28;20136;-72
2024/02/27 00:29:51;;;;;;;3.90;2.70;;;;;;;-146.27;86.31;45516.59;5067444;28;20032;-72
2024/02/27 00:32:16;;;;;;;7.40;3.17;;;;;;;-146.27;86.29;45544.47;5068714;28;20423;-73
2024/02/27 00:34:42;;;;;;;6.43;2.50;;;;;;;-146.27;86.54;45536.50;5068339;28;20491;-72
2024/02/27 00:37:07;;;;;;;5.90;3.13;;;;;;;-146.27;86.30;45546.47;5066323;28;20515;-73
2024/02/27 00:39:33;;;;;;;6.97;3.50;;;;;;;-146.27;86.56;45528.53;5066685;28;20017;-72
2024/02/27 00:41:58;;;;;;;6.00;2.72;;;;;;;-146.27;86.94;45516.59;5069191;28;20028;-73
2024/02/27 00:44:24;;;;;;;7.72;3.38;;;;;;;-146.27;86.43;45506.66;5065190;28;20051;-72
2024/02/27 00:46:49;;;;;;;5.78;3.15;;;;;;;-146.27;86.65;45528.53;5067576;28;20036;-72
2024/02/27 00:49:15;;;;;;;7.15;3.33;;;;;;;-146.27;87.17;45544.47;5066932;28;20025;-72
2024/02/27 00:51:40;;;;;;;5.50;2.97;;;;;;;-146.27;86.79;45558.41;5068425;28;20546;-71
2024/02/27 00:54:05;;;;;;;6.38;2.70;;;;;;;-146.27;86.97;45544.47;5067314;28;20107;-71
2024/02/27 00:56:31;;;;;;;9.38;3.00;;;;;;;-146.27;86.72;45540.50;5067218;28;20100;-72
2024/02/27 00:58:56;;;;;;;6.00;3.30;;;;;;;-146.27;86.88;45532.53;5064732;28;20121;-72
2024/02/27 01:01:21;;;;;;;4.30;3.30;;;;;;;-146.27;87.07;45562.38;5066059;28;20075;-72
2024/02/27 01:03:47;;;;;;;3.67;2.78;;;;;;;-146.27;87.54;45532.53;5070845;28;20033;-71
2024/02/27 01:06:13;;;;;;;4.90;2.75;;;;;;;-146.27;87.00;45564.38;5070645;28;20028;-72
2024/02/27 01:08:39;;;;;;;6.13;3.40;;;;;;;-146.27;86.68;45538.50;5070270;28;20031;-72
2024/02/27 01:11:05;;;;;;;5.13;2.80;;;;;;;-146.27;86.61;45536.50;5070910;28;20032;-72
2024/02/27 01:13:31;;;;;;;6.18;3.28;;;;;;;-146.27;86.67;45556.41;5073900;28;20025;-72
2024/02/27 01:15:56;;;;;;;8.57;3.25;;;;;;;-146.27;86.83;45546.47;5061640;28;20400;-73
2024/02/27 01:18:21;;;;;;;6.75;2.90;;;;;;;-146.27;87.26;45536.50;5067656;28;20028;-73
2024/02/27 01:20:47;;;;;;;4.90;3.13;;;;;;;-146.27;87.62;45534.50;5068049;28;20032;-73
2024/02/27 01:23:12;;;;;;;10.05;3.15;;;;;;;-146.27;87.51;45532.53;5068319;28;20154;-73
2024/02/27 01:25:37;;;;;;;9.32;3.03;;;;;;;-146.27;87.28;45544.47;5067660;28;20024;-73
2024/02/27 01:28:03;;;;;;;10.10;3.50;;;;;;;-146.27;87.04;45536.50;5070995;28;20100;-72
2024/02/27 01:30:28;;;;;;;6.72;3.33;;;;;;;-146.27;87.06;45540.50;5069845;28;20122;-73
2024/02/27 01:32:55;;;;;;;6.97;3.30;;;;;;;-146.27;86.95;45546.47;5067406;28;20052;-74
2024/02/27 01:35:20;;;;;;;12.73;2.95;;;;;;;-146.27;86.93;45524.56;5070635;28;20385;-74
2024/02/27 01:37:46;;;;;;;8.00;3.38;;;;;;;-146.27;87.06;45544.47;5070146;28;20032;-73
2024/02/27 01:40:12;;;;;;;4.70;2.92;;;;;;;-146.27;87.02;45512.63;5069941;28;20056;-73
2024/02/27 01:42:38;;;;;;;6.00;3.15;;;;;;;-146.27;86.98;45546.47;5065601;28;20135;-74
2024/02/27 01:45:03;;;;;;;8.23;2.45;;;;;;;-146.27;87.23;45560.38;5071012;28;20021;-74
2024/02/27 01:47:30;;;;;;;6.18;2.92;;;;;;;-146.27;87.19;45540.50;5070241;28;20092;-74
2024/02/27 01:49:55;;;;;;;4.57;3.38;;;;;;;-146.27;87.15;45540.50;5070482;28;20048;-74
2024/02/27 01:52:21;;;;;;;5.43;2.95;;;;;;;-146.27;86.94;45534.50;5071027;28;20064;-73
2024/02/27 01:54:49;;;;;;;7.32;3.13;;;;;;;-146.27;87.35;45534.50;5069477;28;20040;-73
2024/02/27 01:57:19;;;;;;;9.98;3.10;;;;;;;-146.27;87.12;45512.63;5067225;28;20040;-73
2024/02/27 01:59:45;;;;;;;4.65;3.10;;;;;;;-146.27;87.10;45540.50;5063260;28;20437;-73
2024/02/27 02:02:11;;;;;;;5.25;3.00;;;;;;;-146.27;87.28;45552.44;5070264;28;20046;-73
2024/02/27 02:04:37;;;;;;;6.82;3.28;;;;;;;-146.27;87.32;45534.50;5071081;28;20039;-73
2024/02/27 02:07:03;;;;;;;6.15;3.30;;;;;;;-146.27;87.57;45544.47;5069385;28;20104;-73
2024/02/27 02:09:28;;;;;;;11.27;3.00;;;;;;;-146.27;87.46;45552.44;5069715;28;20389;-73
2024/02/27 02:11:54;;;;;;;5.32;2.90;;;;;;;-146.27;87.33;45544.47;5067715;28;20063;-73
2024/02/27 02:14:20;;;;;;;9.13;3.15;;;;;;;-146.27;87.38;45530.53;5068430;28;20024;-73
2024/02/27 02:16:46;;;;;;;4.18;3.00;;;;;;;-146.27;87.77;45528.53;5067218;28;20064;-73
2024/02/27 02:19:11;;;;;;;8.35;3.28;;;;;;;-146.27;87.30;45510.63;5069998;28;20059;-73
2024/02/27 02:21:37;;;;;;;8.82;2.97;;;;;;;-146.27;87.15;45572.34;5067255;28;20029;-72
2024/02/27 02:24:02;;;;;;;8.07;3.10;;;;;;;-146.27;87.30;45520.59;5066248;28;20132;-73
2024/02/27 02:26:30;;;;;;;7.07;3.75;;;;;;;-146.27;87.10;45528.53;5068559;28;20045;-73
2024/02/27 02:28:56;;;;;;;11.93;3.67;;;;;;;-146.27;87.30;45534.50;5070096;28;20381;-73
2024/02/27 02:31:21;;;;;;;9.88;3.05;;;;;;;-146.27;87.46;45536.50;5067640;28;20112;-73
2024/02/27 02:33:47;;;;;;;5.78;2.65;;;;;;;-146.27;87.74;45536.50;5071899;28;20579;-73
2024/02/27 02:36:12;;;;;;;4.20;3.03;;;;;;;-146.27;87.72;45530.53;5069461;28;20500;-73
2024/02/27 02:38:38;;;;;;;9.73;3.35;;;;;;;-146.27;87.55;45532.53;5067971;28;20032;-73
2024/02/27 02:41:03;;;;;;;9.77;2.95;;;;;;;-146.27;87.54;45552.44;5067879;28;20024;-73
2024/02/27 02:43:28;;;;;;;8.57;3.03;;;;;;;-146.27;87.44;45536.50;5067290;28;20029;-73
2024/02/27 02:45:54;;;;;;;3.30;2.78;;;;;;;-146.27;87.64;45542.47;5067373;28;20065;-73
2024/02/27 02:48:19;;;;;;;8.18;2.50;;;;;;;-146.27;87.66;45566.34;5070138;28;20087;-73
2024/02/27 02:50:45;;;;;;;3.60;2.50;;;;;;;-146.27;87.62;45522.56;5075560;28;20021;-73
2024/02/27 02:53:11;;;;;;;10.35;2.63;;;;;;;-146.27;87.79;45536.50;5067645;28;20396;-73
2024/02/27 02:55:40;;;;;;;8.20;2.50;;;;;;;-146.27;87.69;45564.38;5064641;28;20028;-73
2024/02/27 02:58:06;;;;;;;4.97;2.65;;;;;;;-146.27;87.78;45544.47;5068864;28;20043;-73
2024/02/27 03:00:31;;;;;;;11.05;2.30;;;;;;;-146.27;87.76;45538.50;5066892;28;20025;-73
2024/02/27 03:02:57;;;;;;;2.92;2.00;;;;;;;-146.27;87.77;45558.41;5069365;28;20586;-73
2024/02/27 03:05:22;;;;;;;7.88;2.50;;;;;;;-146.27;87.79;45588.25;5068880;28;20492;-73
2024/02/27 03:07:47;;;;;;;7.20;2.42;;;;;;;-146.27;87.70;45544.47;5068696;28;20053;-73
2024/02/27 03:10:13;;;;;;;7.28;2.20;;;;;;;-146.27;87.86;45552.44;5068310;28;20017;-73
2024/02/27 03:12:39;;;;;;;6.72;2.45;;;;;;;-146.27;87.95;45604.19;5067772;28;20028;-73
2024/02/27 03:15:08;;;;;;;4.47;2.53;;;;;;;-146.27;88.30;45564.38;5068022;28;20039;-73
2024/02/27 03:17:33;;;;;;;5.80;2.65;;;;;;;-146.27;87.89;45560.38;5065385;28;20397;-73
2024/02/27 03:19:59;;;;;;;9.43;3.00;;;;;;;-146.27;87.96;45564.38;5069888;28;20060;-73
2024/02/27 03:22:24;;;;;;;5.40;2.75;;;;;;;-146.27;87.83;45574.31;5066930;28;20493;-73
2024/02/27 03:24:50;;;;;;;6.07;2.70;;;;;;;-146.27;88.02;45600.19;5073549;28;20123;-73
2024/02/27 03:27:15;;;;;;;5.45;2.70;;;;;;;-146.27;87.91;45568.34;5068820;28;20052;-73
2024/02/27 03:29:40;;;;;;;4.35;2.65;;;;;;;-146.27;87.67;45582.28;5069110;28;20020;-73
2024/02/27 03:32:06;;;;;;;6.47;2.40;;;;;;;-146.27;88.27;45570.34;5069618;28;20024;-73
2024/02/27 03:34:35;;;;;;;4.97;2.83;;;;;;;-146.27;88.43;45556.41;5067776;28;20134;-71
2024/02/27 03:37:01;;;;;;;6.47;2.63;;;;;;;-146.27;88.20;45584.28;5065761;28;20032;-71
2024/02/27 03:39:28;;;;;;;5.32;2.75;;;;;;;-146.27;88.08;45578.31;5069188;28;20116;-72
2024/02/27 03:41:53;;;;;;;6.82;2.65;;;;;;;-146.27;88.32;45580.28;5058795;28;20702;-72
2024/02/27 03:44:18;;;;;;;6.25;2.63;;;;;;;-146.27;88.07;45580.28;5070822;28;20099;-71
2024/02/27 03:46:44;;;;;;;7.45;2.92;;;;;;;-146.27;88.05;45568.34;5066466;28;20103;-73
2024/02/27 03:49:09;;;;;;;6.28;3.28;;;;;;;-146.27;88.24;45554.41;5069440;28;20143;-72
2024/02/27 03:51:35;;;;;;;9.85;3.00;;;;;;;-146.27;88.29;45574.31;5059971;28;20660;-71
2024/02/27 03:54:00;;;;;;;6.07;3.15;;;;;;;-146.27;88.35;45562.38;5066479;28;20456;-72
2024/02/27 03:56:26;;;;;;;7.85;2.75;;;;;;;-146.27;88.40;45544.47;5060246;28;20481;-72
2024/02/27 03:58:51;;;;;;;8.45;2.63;;;;;;;-146.27;88.04;45516.59;5063918;28;20416;-72
2024/02/27 04:01:17;;;;;;;9.70;2.75;;;;;;;-146.27;87.89;45544.47;5060054;28;20493;-72
2024/02/27 04:03:43;;;;;;;4.70;2.80;;;;;;;-146.27;87.90;45534.50;5067834;28;20024;-72
2024/02/27 04:06:08;;;;;;;4.47;2.90;;;;;;;-146.27;88.16;45544.47;5069816;28;20101;-72
2024/02/27 04:08:34;;;;;;;8.65;2.85;;;;;;;-146.27;88.09;45564.38;5058552;28;20075;-72
2024/02/27 04:10:59;;;;;;;7.97;2.47;;;;;;;-146.27;88.73;45552.44;5049928;28;20461;-72
2024/02/27 04:13:25;;;;;;;5.72;3.25;;;;;;;-146.27;88.23;45524.56;5059824;28;20027;-72
2024/02/27 04:15:50;;;;;;;4.32;2.55;;;;;;;-146.27;87.97;45552.44;5076023;28;20035;-72
2024/02/27 04:18:16;;;;;;;8.02;3.38;;;;;;;-146.27;88.24;45544.47;5067369;28;20028;-73
2024/02/27 04:20:43;;;;;;;7.05;3.40;;;;;;;-146.27;88.10;45532.53;5075061;28;20047;-72
2024/02/27 04:23:09;;;;;;;5.93;3.20;;;;;;;-146.27;87.92;45528.53;5067960;28;20024;-72
2024/02/27 04:25:35;;;;;;;4.32;2.75;;;;;;;-146.27;87.77;45546.47;5068502;28;20149;-72
2024/02/27 04:28:01;;;;;;;5.15;3.22;;;;;;;-146.27;88.00;45560.38;5065836;28;20463;-72
2024/02/27 04:30:26;;;;;;;4.05;2.90;;;;;;;-146.27;88.05;45542.47;5068267;28;20111;-71
2024/02/27 04:32:51;;;;;;;10.05;3.05;;;;;;;-146.27;88.03;45528.53;5065851;28;20036;-72
2024/02/27 04:35:17;;;;;;;7.72;2.80;;;;;;;-146.27;87.83;45512.63;5068132;28;20021;-73
2024/02/27 04:37:42;;;;;;;9.25;3.17;;;;;;;-146.27;88.19;45554.41;5070038;28;20067;-73
2024/02/27 04:40:09;;;;;;;5.95;2.88;;;;;;;-146.27;87.86;45556.41;5069463;28;20012;-72
2024/02/27 04:42:34;;;;;;;8.60;3.05;;;;;;;-146.27;87.97;45556.41;5069779;28;20028;-73
2024/02/27 04:45:00;;;;;;;4.53;2.70;;;;;;;-146.27;87.69;45556.41;5070218;28;20032;-72
2024/02/27 04:47:26;;;;;;;9.13;2.90;;;;;;;-146.27;87.83;45568.34;5058510;28;20100;-74
2024/02/27 04:49:51;;;;;;;6.53;2.90;;;;;;;-146.27;88.24;45572.34;5055735;28;20055;-71
2024/02/27 04:52:16;;;;;;;10.93;2.60;;;;;;;-146.27;88.11;45546.47;5068472;28;20032;-73
2024/02/27 04:54:42;;;;;;;5.50;2.67;;;;;;;-146.27;88.05;45562.38;5071173;28;20033;-73
2024/02/27 04:57:08;;;;;;;7.05;2.60;;;;;;;-146.27;88.09;45588.25;5072728;28;20029;-72
2024/02/27 04:59:35;;;;;;;7.93;2.50;;;;;;;-146.27;88.24;45588.25;5070986;28;20032;-72
2024/02/27 05:02:00;;;;;;;10.55;2.88;;;;;;;-146.27;88.32;45586.25;5067017;28;20033;-73
2024/02/27 05:04:26;;;;;;;7.60;2.83;;;;;;;-146.27;88.21;45570.34;5071147;28;20032;-72
2024/02/27 05:06:51;;;;;;;4.30;2.58;;;;;;;-146.27;88.18;45608.16;5069453;28;20032;-72
2024/02/27 05:09:16;;;;;;;6.45;2.83;;;;;;;-146.27;88.29;45616.13;5069907;28;20434;-71
2024/02/27 05:11:44;;;;;;;6.43;2.60;;;;;;;-146.27;88.36;45600.19;5071331;28;20029;-71
2024/02/27 05:14:10;;;;;;;6.82;2.63;;;;;;;-146.27;88.01;45612.13;5069410;28;21239;-74
2024/02/27 05:16:35;;;;;;;3.55;2.47;;;;;;;-146.27;88.09;45608.16;5072298;28;20036;-72
2024/02/27 05:19:00;;;;;;;7.90;2.63;;;;;;;-146.27;88.07;45592.22;5071385;28;20031;-73
2024/02/27 05:21:26;;;;;;;5.88;2.65;;;;;;;-146.27;88.08;45600.19;5068833;28;20040;-72
2024/02/27 05:23:51;;;;;;;6.07;3.28;;;;;;;-146.27;88.53;45604.19;5069521;28;20043;-73
2024/02/27 05:26:17;;;;;;;5.05;3.25;;;;;;;-146.27;88.46;45612.13;5072257;28;20432;-73
2024/02/27 05:28:42;;;;;;;7.85;3.22;;;;;;;-146.27;88.56;45592.22;5070562;28;20063;-73
2024/02/27 05:31:27;;;;;;;6.03;2.80;;;;;;;-146.27;88.51;45576.31;5071321;28;20512;-73
2024/02/27 05:33:57;;;;;;;8.23;3.50;;;;;;;-146.27;88.68;45596.22;5071129;28;20073;-73
2024/02/27 05:36:23;;;;;;;6.10;3.30;;;;;;;-146.27;88.68;45584.28;5061692;28;20075;-73
2024/02/27 05:38:50;;;;;;;6.68;3.88;;;;;;;-146.27;88.56;45614.13;5069528;28;20396;-73
2024/02/27 05:41:19;;;;;;;5.22;3.03;;;;;;;-146.27;88.70;45580.28;5082444;28;20052;-70
2024/02/27 05:43:44;;;;;;;14.93;3.70;;;;;;;-146.27;88.96;45576.31;5069632;28;20457;-74
2024/02/27 05:46:10;;;;;;;8.45;3.30;;;;;;;-146.27;88.69;45594.22;5069648;28;20112;-73
2024/02/27 05:48:36;;;;;;;8.75;3.38;;;;;;;-146.27;88.92;45596.22;5062589;28;20047;-72
2024/02/27 05:51:02;;;;;;;8.27;3.50;;;;;;;-146.27;88.90;45632.03;5070569;28;20040;-72
2024/02/27 05:53:29;;;;;;;11.82;4.65;;;;;;;-146.27;88.69;45592.22;5068753;28;20028;-72
2024/02/27 05:55:55;;;;;;;6.90;3.00;;;;;;;-146.27;88.81;45624.06;5066362;28;20028;-72
2024/02/27 05:58:23;;;;;;;11.15;3.08;;;;;;;-146.27;88.97;45638.00;5070605;28;20071;-72
2024/02/27 06:00:48;;;;;;;6.10;3.20;;;;;;;-146.27;88.98;45632.03;5071421;28;20164;-72
2024/02/27 06:03:14;;;;;;;11.00;2.95;;;;;;;-146.27;89.18;45638.00;5072129;28;20024;-72
2024/02/27 06:05:39;;;;;;;11.52;3.30;;;;;;;-146.27;88.63;45673.84;5060746;28;20031;-72
2024/02/27 06:08:05;;;;;;;7.82;2.83;;;;;;;-146.27;88.82;45659.91;5070355;28;20059;-72
2024/02/27 06:10:30;;;;;;;7.82;3.35;;;;;;;-146.27;88.82;45651.94;5061137;28;20474;-72
2024/02/27 06:12:56;;;;;;;6.07;2.80;;;;;;;-146.27;89.07;45636.03;5076844;28;20111;-72
2024/02/27 06:15:21;;;;;;;7.40;4.07;;;;;;;-146.27;89.09;45640.00;5071116;28;20056;-72
2024/02/27 06:17:47;;;;;;;10.73;3.55;;;;;;;-146.27;89.10;45677.81;5069397;28;20485;-72
2024/02/27 06:22:57;;;;;;;5.30;3.40;;;;;;;-146.27;89.06;45638.00;5064057;28;20579;-71
2024/02/27 06:25:22;;;;;;;5.82;3.10;;;;;;;-146.27;88.93;45655.94;5070140;28;20021;-73
2024/02/27 06:27:50;;;;;;;5.85;3.20;;;;;;;-146.27;89.00;45675.81;5060643;28;20053;-72
2024/02/27 06:30:16;;;;;;;16.65;3.88;;;;;;;-146.27;89.16;45651.94;5067657;28;20024;-72
2024/02/27 06:32:41;;;;;;;8.02;3.88;;;;;;;-146.27;89.02;45655.94;5062793;28;20101;-72
2024/02/27 06:35:09;;;;;;;7.07;3.47;;;;;;;-146.27;89.11;45638.00;5072035;28;20408;-72
2024/02/27 06:37:34;;;;;;;9.68;4.30;;;;;;;-146.27;89.01;45669.84;5064599;28;20033;-73
2024/02/27 06:40:00;;;;;;;9.20;4.88;;;;;;;-146.27;89.21;45659.91;5069978;28;20487;-73
2024/02/27 06:42:25;;;;;;;5.80;3.78;;;;;;;-146.27;89.42;45628.06;5070382;28;20496;-74
2024/02/27 06:44:50;;;;;;;10.70;4.75;;;;;;;-146.27;89.34;45632.03;5070478;28;20037;-72
2024/02/27 06:47:18;;;;;;;6.45;4.38;;;;;;;-146.27;89.37;45643.97;5070906;28;20107;-73
2024/02/27 06:49:44;;;;;;;11.40;4.57;;;;;;;-146.27;89.46;45667.88;5070618;28;20028;-73
2024/02/27 06:52:09;;;;;;;8.30;4.57;;;;;;;-146.27;89.39;45697.72;5070469;28;20024;-72
2024/02/27 06:54:35;;;;;;;10.02;4.38;;;;;;;-146.27;89.50;45683.78;5069064;28;20492;-72
2024/02/27 06:57:01;;;;;;;9.07;5.57;;;;;;;-146.27;89.63;45671.84;5062946;28;20043;-72
2024/02/27 06:59:26;;;;;;;15.52;5.45;;;;;;;-146.27;89.80;45693.75;5068132;28;20610;-72
2024/02/27 07:01:51;;;;;;;9.40;4.88;;;;;;;-146.27;90.20;45711.66;5063610;28;20120;-72
2024/02/27 07:04:17;;;;;;;8.48;4.45;;;;;;;-146.27;89.88;45703.69;5066393;28;20024;-72
2024/02/27 07:06:43;;;;;;;9.65;4.95;;;;;;;-146.27;90.09;45715.63;5068210;28;20040;-72
2024/02/27 07:09:09;;;;;;;11.35;5.40;;;;;;;-146.27;90.05;45699.72;5067537;28;20035;-72
2024/02/27 07:11:35;;;;;;;7.53;5.05;;;;;;;-146.27;89.58;45719.63;5069146;28;20031;-73
2024/02/27 07:14:01;;;;;;;16.25;5.53;;;;;;;-146.27;89.37;45751.47;5073407;28;20024;-74
2024/02/27 07:16:26;;;;;;;8.63;5.25;;;;;;;-146.27;89.91;45751.47;5078073;28;20452;-75
2024/02/27 07:18:53;;;;;;;11.25;4.55;;;;;;;-146.27;89.88;45743.50;5077051;28;20041;-74
2024/02/27 07:21:18;;;;;;;7.80;4.90;;;;;;;-146.27;89.94;45743.50;5075255;28;20040;-76
2024/02/27 07:23:44;;;;;;;7.72;4.53;;;;;;;-146.27;89.80;45747.47;5074658;28;20028;-75
2024/02/27 07:26:09;;;;;;;8.45;4.70;;;;;;;-146.27;89.75;45739.53;5068736;28;20071;-75
2024/02/27 07:28:34;;;;;;;11.60;5.60;;;;;;;-146.27;89.80;45747.47;5069194;28;20020;-75
2024/02/27 07:31:00;;;;;;;12.85;4.60;;;;;;;-146.27;89.82;45763.41;5069369;28;20063;-75
2024/02/27 07:33:25;;;;;;;9.82;4.97;;;;;;;-146.27;89.88;45757.44;5068696;28;20024;-73
2024/02/27 07:35:51;;;;;;;8.40;5.13;;;;;;;-146.27;89.94;45733.56;5066617;28;20025;-75
2024/02/27 07:38:16;;;;;;;10.70;5.78;;;;;;;-146.27;89.90;45811.19;5067886;28;20060;-73
2024/02/27 07:40:42;;;;;;;10.45;6.03;;;;;;;-146.27;89.59;45763.41;5064120;28;20063;-74
2024/02/27 07:43:07;;;;;;;13.18;5.32;;;;;;;-146.27;89.96;45757.44;5069020;28;20020;-74
2024/02/27 07:45:33;;;;;;;8.95;5.55;;;;;;;-146.27;89.88;45757.44;5069112;28;20024;-73
2024/02/27 07:48:00;;;;;;;14.43;5.90;;;;;;;-146.27;89.99;45763.41;5069563;28;20066;-73
2024/02/27 07:50:26;;;;;;;13.25;6.00;;;;;;;-146.27;89.75;45757.44;5069367;28;20017;-73
2024/02/27 07:52:51;;;;;;;15.00;6.03;;;;;;;-146.27;89.85;45767.38;5069175;28;20038;-73
2024/02/27 07:55:17;;;;;;;9.23;5.53;;;;;;;-146.27;89.75;45739.53;5067989;28;20028;-72
2024/02/27 07:57:43;;;;;;;10.05;6.32;;;;;;;-146.27;90.10;45731.56;5068750;28;20043;-74
2024/02/27 08:00:09;;;;;;;12.32;6.45;;;;;;;-146.27;90.21;45749.47;5069498;28;20028;-74
2024/02/27 08:02:36;;;;;;;10.80;6.32;;;;;;;-146.27;90.04;45731.56;5068930;28;20035;-71
2024/02/27 08:05:03;;;;;;;11.98;6.47;;;;;;;-146.27;90.11;45703.69;5069884;28;20028;-75
2024/02/27 08:07:28;;;;;;;13.77;7.57;;;;;;;-146.27;89.63;45717.63;5067582;28;20025;-75
2024/02/27 08:09:54;;;;;;;10.70;6.57;;;;;;;-146.27;90.26;45683.78;5051660;28;20143;-73
2024/02/27 08:12:19;;;;;;;17.25;8.52;;;;;;;-146.27;90.02;45657.91;5069902;28;20424;-73
2024/02/27 08:14:44;;;;;;;14.13;6.95;;;;;;;-146.27;89.79;45649.94;5070154;28;20020;-73
2024/02/27 08:17:10;;;;;;;10.05;6.38;;;;;;;-146.27;90.05;45645.97;5066968;28;20264;-74
2024/02/27 08:19:39;;;;;;;10.30;7.03;;;;;;;-146.27;90.00;45663.88;5068301;28;20419;-73
2024/02/27 08:22:05;;;;;;;12.32;6.13;;;;;;;-146.27;90.29;45663.88;5069673;28;20599;-73
2024/02/27 08:24:31;;;;;;;11.70;6.40;;;;;;;-146.27;89.94;45624.06;5069904;28;20280;-73
2024/02/27 08:26:56;;;;;;;13.45;6.38;;;;;;;-146.27;90.02;45659.91;5068411;28;20135;-73
2024/02/27 08:29:22;;;;;;;10.77;6.82;;;;;;;-146.27;90.04;45612.13;5067752;28;20496;-73
2024/02/27 08:31:47;;;;;;;10.75;5.95;;;;;;;-146.27;89.72;45630.06;5069201;28;20485;-72
2024/02/27 08:34:13;;;;;;;13.48;6.90;;;;;;;-146.27;89.82;45638.00;5069581;28;20032;-72
2024/02/27 08:36:38;;;;;;;13.93;6.60;;;;;;;-146.27;89.84;45616.13;5069081;28;20024;-72
2024/02/27 08:39:04;;;;;;;13.88;6.60;;;;;;;-146.27;89.69;45634.03;5069714;28;20020;-72
2024/02/27 08:41:30;;;;;;;12.05;5.90;;;;;;;-146.27;89.87;45596.22;5068996;28;20468;-72
2024/02/27 08:43:55;;;;;;;13.07;6.20;;;;;;;-146.27;89.54;45616.13;5057926;28;20029;-71
2024/02/27 08:46:20;;;;;;;10.38;6.10;;;;;;;-146.27;89.63;45582.28;5069399;28;20472;-73
2024/02/27 08:48:46;;;;;;;14.40;7.55;;;;;;;-146.27;89.60;45580.28;5069465;28;20067;-72
2024/02/27 08:51:12;;;;;;;13.93;7.07;;;;;;;-146.27;89.63;45572.34;5069402;28;20099;-72
2024/02/27 08:53:38;;;;;;;13.45;6.28;;;;;;;-146.27;89.64;45562.38;5067070;28;20028;-73
2024/02/27 08:56:06;;;;;;;12.63;5.85;;;;;;;-146.27;89.58;45528.53;5069028;28;20051;-73
2024/02/27 08:58:33;;;;;;;12.43;6.53;;;;;;;-146.27;89.38;45524.56;5068407;28;20136;-73
2024/02/27 09:00:59;;;;;;;12.85;6.57;;;;;;;-146.27;89.38;45534.50;5068888;28;20260;-70
2024/02/27 09:03:24;;;;;;;11.70;6.30;;;;;;;-146.27;89.37;45480.78;5067878;28;20058;-73
2024/02/27 09:05:50;;;;;;;15.80;6.63;;;;;;;-146.27;89.12;45512.63;5069291;28;20093;-72
2024/02/27 09:08:15;;;;;;;10.85;5.75;;;;;;;-146.27;89.15;45492.72;5069543;28;20104;-73
2024/02/27 09:10:45;;;;;;;10.95;6.68;;;;;;;-146.27;88.85;45492.72;5057753;28;20024;-73
2024/02/27 09:13:10;;;;;;;9.85;6.40;;;;;;;-146.27;88.87;45460.88;5068295;28;20024;-73
2024/02/27 09:15:36;;;;;;;16.83;7.30;;;;;;;-146.27;88.78;45452.91;5069422;28;20020;-72
2024/02/27 09:18:02;;;;;;;21.20;7.50;;;;;;;-146.27;88.72;45450.91;5069425;28;20082;-70
2024/02/27 09:20:31;;;;;;;12.13;6.22;;;;;;;-146.27;88.26;45425.06;5066784;28;20044;-73
2024/02/27 09:22:57;;;;;;;10.50;6.95;;;;;;;-146.27;87.83;45435.00;5068416;28;20089;-73
2024/02/27 09:25:22;;;;;;;12.45;6.97;;;;;;;-146.27;87.40;45419.09;5072136;28;20032;-73
2024/02/27 09:27:47;;;;;;;13.65;6.65;;;;;;;-146.27;87.18;45377.28;5072270;28;20508;-72
2024/02/27 09:30:13;;;;;;;16.67;6.93;;;;;;;-146.27;86.63;45323.56;5072261;28;20025;-73
2024/02/27 09:32:38;;;;;;;11.05;5.60;;;;;;;-146.27;85.01;45287.72;5072131;28;20032;-73
2024/02/27 09:35:05;;;;;;;10.18;5.78;;;;;;;-146.27;83.37;45235.97;5072460;28;20034;-72
2024/02/27 09:37:31;;;;;;;8.45;5.63;;;;;;;-146.27;81.54;45343.44;5071827;28;20029;-74
2024/02/27 09:39:56;;;;;;;9.85;5.78;;;;;;;-146.27;80.53;45329.53;5072164;28;20039;-73
2024/02/27 09:42:23;;;;;;;11.55;6.82;;;;;;;-146.27;79.17;45357.38;5072090;28;20067;-74
2024/02/27 09:44:52;;;;;;;10.02;5.32;;;;;;;-146.27;78.57;45373.31;5069676;28;20123;-73
2024/02/27 09:47:18;;;;;;;9.82;5.43;;;;;;;-146.27;77.56;45341.47;5073061;28;20035;-74
2024/02/27 09:49:45;;;;;;;17.05;6.40;;;;;;;-146.27;79.14;45484.75;5066338;28;20024;-72
2024/02/27 09:52:13;;;;;;;9.18;5.72;;;;;;;-146.27;79.31;45349.41;5071418;28;20043;-73
2024/02/27 09:54:38;;;;;;;11.18;5.82;;;;;;;-146.27;78.03;45415.09;5064904;28;20055;-73
2024/02/27 09:57:04;;;;;;;12.45;5.15;;;;;;;-146.27;78.45;45357.38;5072048;28;20497;-73
2024/02/27 09:59:30;;;;;;;9.70;5.47;;;;;;;-146.27;78.82;45287.72;5071213;28;20488;-74
2024/02/27 10:02:05;;;;;;;7.88;4.80;;;;;;;-146.27;75.34;45190.22;5069451;28;20040;-73
2024/02/27 10:04:32;;;;;;;10.85;5.07;;;;;;;-146.27;73.56;45226.03;5071640;28;20502;-73
2024/02/27 10:06:59;;;;;;;8.68;4.45;;;;;;;-146.27;72.71;45323.56;5072132;28;20027;-74
2024/02/27 10:09:27;;;;;;;5.32;3.60;;;;;;;-146.27;72.55;45377.28;5073880;28;20020;-73
2024/02/27 10:11:53;;;;;;;7.75;3.88;;;;;;;-146.27;74.47;45421.06;5071550;28;20033;-73
2024/02/27 10:14:33;;;;;;;5.82;3.97;;;;;;;-146.27;73.53;45385.25;5069838;28;20040;-73
2024/02/27 10:16:59;;;;;;;8.02;3.75;;;;;;;-146.27;73.77;45319.56;5067336;28;20081;-73
2024/02/27 10:19:28;;;;;;;5.80;3.97;;;;;;;-146.27;71.25;45460.88;5070942;28;20028;-73
2024/02/27 10:21:54;;;;;;;9.55;4.68;;;;;;;-146.27;73.29;45377.28;5069845;28;20028;-73
2024/02/27 10:24:29;;;;;;;6.38;4.18;;;;;;;-146.27;72.52;45281.75;5071714;28;20012;-73
2024/02/27 10:27:01;;;;;;;5.30;3.75;;;;;;;-146.27;70.65;45261.84;5071796;28;20048;-73
2024/02/27 10:29:28;;;;;;;4.65;3.28;;;;;;;-146.27;68.27;45361.38;5073132;28;20028;-73
2024/02/27 10:31:54;;;;;;;6.43;3.35;;;;;;;-146.27;67.33;45409.13;5071316;28;20455;-73
2024/02/27 10:34:21;;;;;;;4.72;3.22;;;;;;;-146.27;68.29;45333.50;5070003;28;20024;-73
2024/02/27 10:37:03;;;;;;;5.93;3.30;;;;;;;-146.27;67.93;45397.19;5071265;28;20097;-73
2024/02/27 10:39:31;;;;;;;6.28;3.53;;;;;;;-146.27;69.77;45393.22;5070393;28;20116;-72
2024/02/27 10:41:57;;;;;;;8.27;4.15;;;;;;;-146.27;69.25;45297.69;5071342;28;20499;-72
2024/02/27 10:44:23;;;;;;;11.35;4.05;;;;;;;-146.27;68.31;45255.88;5071402;28;20496;-73
2024/02/27 10:46:49;;;;;;;4.75;3.22;;;;;;;-146.27;69.21;45239.97;5071631;28;20580;-72
2024/02/27 10:49:16;;;;;;;4.55;3.38;;;;;;;-146.27;70.06;45118.56;5071486;28;20016;-73
2024/02/27 10:51:42;;;;;;;5.25;2.80;;;;;;;-146.27;66.14;45156.38;5069952;28;20393;-74
2024/02/27 10:54:07;;;;;;;4.97;3.10;;;;;;;-146.27;65.73;45311.59;5070690;28;20028;-72
2024/02/27 10:56:33;;;;;;;4.10;3.10;;;;;;;-146.27;66.02;45202.16;5070968;28;20027;-72
2024/02/27 10:59:03;;;;;;;4.50;2.97;;;;;;;-146.27;65.55;45210.09;5070278;28;20036;-72
2024/02/27 11:01:29;;;;;;;7.38;3.00;;;;;;;-146.27;67.86;45261.84;5070154;28;20520;-72
2024/02/27 11:03:57;;;;;;;5.68;3.22;;;;;;;-146.27;66.72;45291.72;5080686;28;20047;-72
2024/02/27 11:06:28;;;;;;;4.32;3.50;;;;;;;-146.27;67.63;45200.16;5070755;28;20511;-73
2024/02/27 11:09:01;;;;;;;6.85;3.60;;;;;;;-146.27;65.51;45062.84;5069563;28;20020;-72
2024/02/27 11:11:26;;;;;;;4.45;2.90;;;;;;;-146.27;65.43;45033.00;5070888;28;20347;-73